Time;durP1;ratioP1;P1;durP2;ratioP2;P2;SDS_P1;SDS_P2;PMS_P1;PMS_P2;Temp;Humidity;BMP_temperature;BMP_pressure;BME280_temperature;BME280_humidity;BME280_pressure;Samples;Min_cycle;Max_cycle;Signal;HPM_P1;HPM_P2
2022/09/05 00:03:37;;;;;;;6.3;4.299999;;;;;;;13.46;84.73438;95805.41;;;;
2022/09/05 00:04:49;;;;;;;6.3;4.299999;;;;;;;13.46;84.73438;95805.41;;;;
2022/09/05 00:06:00;;;;;;;6.3;4.299999;;;;;;;13.46;84.73438;95805.41;;;;
2022/09/05 00:07:06;;;;;;;6.3;4.299999;;;;;;;13.46;84.73438;95805.41;;;;
2022/09/05 00:08:12;;;;;;;6.3;4.299999;;;;;;;13.46;84.73438;95805.41;;;;
2022/09/05 00:09:21;;;;;;;4.65;4.25;;;;;;;13.4;84.95898;95804.13;;;;
2022/09/05 00:10:41;;;;;;;4.65;4.25;;;;;;;13.4;84.95898;95804.13;;;;
2022/09/05 00:11:52;;;;;;;4.65;4.25;;;;;;;13.4;84.95898;95804.13;;;;
2022/09/05 00:12:59;;;;;;;4.65;4.25;;;;;;;13.4;84.95898;95804.13;;;;
2022/09/05 00:14:01;;;;;;;4.65;4.25;;;;;;;13.4;84.95898;95804.13;;;;
2022/09/05 00:15:26;;;;;;;4.65;4.25;;;;;;;13.4;84.95898;95804.13;;;;
2022/09/05 00:16:34;;;;;;;4.65;4.25;;;;;;;13.4;84.95898;95804.13;;;;
2022/09/05 00:17:51;;;;;;;4.65;4.25;;;;;;;13.4;84.95898;95804.13;;;;
2022/09/05 00:19:09;;;;;;;4.65;4.25;;;;;;;13.4;84.95898;95804.13;;;;
2022/09/05 00:20:21;;;;;;;5.2;4.2;;;;;;;13.27;85.10449;95801.58;;;;
2022/09/05 00:21:30;;;;;;;5.2;4.2;;;;;;;13.27;85.10449;95801.58;;;;
2022/09/05 00:22:44;;;;;;;5.2;4.2;;;;;;;13.27;85.10449;95801.58;;;;
2022/09/05 00:23:56;;;;;;;5.2;4.2;;;;;;;13.27;85.10449;95801.58;;;;
2022/09/05 00:25:08;;;;;;;5.2;4.2;;;;;;;13.27;85.10449;95801.58;;;;
2022/09/05 00:26:23;;;;;;;5.2;4.2;;;;;;;13.27;85.10449;95801.58;;;;
2022/09/05 00:27:37;;;;;;;5.2;4.2;;;;;;;13.27;85.10449;95801.58;;;;
2022/09/05 00:28:47;;;;;;;5.2;4.2;;;;;;;13.27;85.10449;95801.58;;;;
2022/09/05 00:29:57;;;;;;;5.2;4.2;;;;;;;13.27;85.10449;95801.58;;;;
2022/09/05 00:31:05;;;;;;;5.45;4.45;;;;;;;13.21;85.34375;95794.89;;;;
2022/09/05 00:32:23;;;;;;;5.45;4.45;;;;;;;13.21;85.34375;95794.89;;;;
2022/09/05 00:33:34;;;;;;;5.45;4.45;;;;;;;13.21;85.34375;95794.89;;;;
2022/09/05 00:34:47;;;;;;;5.45;4.45;;;;;;;13.21;85.34375;95794.89;;;;
2022/09/05 00:36:00;;;;;;;5.45;4.45;;;;;;;13.21;85.34375;95794.89;;;;
2022/09/05 00:37:16;;;;;;;5.45;4.45;;;;;;;13.21;85.34375;95794.89;;;;
2022/09/05 00:38:29;;;;;;;5.45;4.45;;;;;;;13.21;85.34375;95794.89;;;;
2022/09/05 00:39:31;;;;;;;5.45;4.45;;;;;;;13.21;85.34375;95794.89;;;;
2022/09/05 00:40:35;;;;;;;5.45;4.45;;;;;;;13.21;85.34375;95794.89;;;;
2022/09/05 00:41:40;;;;;;;6;4.75;;;;;;;13.09;85.37598;95792.52;;;;
2022/09/05 00:42:41;;;;;;;6;4.75;;;;;;;13.09;85.37598;95792.52;;;;
2022/09/05 00:43:43;;;;;;;6;4.75;;;;;;;13.09;85.37598;95792.52;;;;
2022/09/05 00:44:49;;;;;;;6;4.75;;;;;;;13.09;85.37598;95792.52;;;;
2022/09/05 00:45:57;;;;;;;6;4.75;;;;;;;13.09;85.37598;95792.52;;;;
2022/09/05 00:47:01;;;;;;;6;4.75;;;;;;;13.09;85.37598;95792.52;;;;
2022/09/05 00:48:08;;;;;;;6;4.75;;;;;;;13.09;85.37598;95792.52;;;;
2022/09/05 00:49:22;;;;;;;6;4.75;;;;;;;13.09;85.37598;95792.52;;;;
2022/09/05 00:50:28;;;;;;;6;4.75;;;;;;;13.09;85.37598;95792.52;;;;
2022/09/05 00:51:38;;;;;;;6.15;4.900001;;;;;;;13.04;85.55859;95791.02;;;;
2022/09/05 00:52:42;;;;;;;6.15;4.900001;;;;;;;13.04;85.55859;95791.02;;;;
2022/09/05 00:53:51;;;;;;;6.15;4.900001;;;;;;;13.04;85.55859;95791.02;;;;
2022/09/05 00:55:11;;;;;;;6.15;4.900001;;;;;;;13.04;85.55859;95791.02;;;;
2022/09/05 00:56:20;;;;;;;6.15;4.900001;;;;;;;13.04;85.55859;95791.02;;;;
2022/09/05 00:57:40;;;;;;;6.15;4.900001;;;;;;;13.04;85.55859;95791.02;;;;
2022/09/05 00:58:53;;;;;;;6.15;4.900001;;;;;;;13.04;85.55859;95791.02;;;;
2022/09/05 01:00:05;;;;;;;6.15;4.900001;;;;;;;13.04;85.55859;95791.02;;;;
2022/09/05 01:01:14;;;;;;;6.15;4.900001;;;;;;;13.04;85.55859;95791.02;;;;
2022/09/05 01:02:36;;;;;;;6.15;5.05;;;;;;;12.94;85.67871;95789.4;;;;
2022/09/05 01:03:58;;;;;;;6.15;5.05;;;;;;;12.94;85.67871;95789.4;;;;
2022/09/05 01:05:16;;;;;;;6.15;5.05;;;;;;;12.94;85.67871;95789.4;;;;
2022/09/05 01:06:30;;;;;;;6.15;5.05;;;;;;;12.94;85.67871;95789.4;;;;
2022/09/05 01:07:41;;;;;;;6.15;5.05;;;;;;;12.94;85.67871;95789.4;;;;
2022/09/05 01:09:02;;;;;;;6.15;5.05;;;;;;;12.94;85.67871;95789.4;;;;
2022/09/05 01:10:19;;;;;;;6.15;5.05;;;;;;;12.94;85.67871;95789.4;;;;
2022/09/05 01:11:31;;;;;;;6.15;5.05;;;;;;;12.94;85.67871;95789.4;;;;
2022/09/05 01:12:43;;;;;;;6.15;5.05;;;;;;;12.94;85.67871;95789.4;;;;
2022/09/05 01:13:56;;;;;;;5.199999;4.699999;;;;;;;12.91;85.93066;95793.81;;;;
2022/09/05 01:15:10;;;;;;;5.199999;4.699999;;;;;;;12.91;85.93066;95793.81;;;;
2022/09/05 01:16:21;;;;;;;5.199999;4.699999;;;;;;;12.91;85.93066;95793.81;;;;
2022/09/05 01:17:27;;;;;;;5.199999;4.699999;;;;;;;12.91;85.93066;95793.81;;;;
2022/09/05 01:18:46;;;;;;;5.199999;4.699999;;;;;;;12.91;85.93066;95793.81;;;;
2022/09/05 01:19:56;;;;;;;5.199999;4.699999;;;;;;;12.91;85.93066;95793.81;;;;
2022/09/05 01:21:19;;;;;;;5.199999;4.699999;;;;;;;12.91;85.93066;95793.81;;;;
2022/09/05 01:22:36;;;;;;;5.199999;4.699999;;;;;;;12.91;85.93066;95793.81;;;;
2022/09/05 01:23:57;;;;;;;5;4.5;;;;;;;12.82;86.0127;95797.64;;;;
2022/09/05 01:25:16;;;;;;;5;4.5;;;;;;;12.82;86.0127;95797.64;;;;
2022/09/05 01:26:29;;;;;;;5;4.5;;;;;;;12.82;86.0127;95797.64;;;;
2022/09/05 01:27:47;;;;;;;5;4.5;;;;;;;12.82;86.0127;95797.64;;;;
2022/09/05 01:28:55;;;;;;;5;4.5;;;;;;;12.82;86.0127;95797.64;;;;
2022/09/05 01:30:03;;;;;;;5;4.5;;;;;;;12.82;86.0127;95797.64;;;;
2022/09/05 01:31:08;;;;;;;5;4.5;;;;;;;12.82;86.0127;95797.64;;;;
2022/09/05 01:32:15;;;;;;;5;4.5;;;;;;;12.82;86.0127;95797.64;;;;
2022/09/05 01:33:28;;;;;;;5;4.5;;;;;;;12.82;86.0127;95797.64;;;;
2022/09/05 01:34:42;;;;;;;5.2;4.7;;;;;;;12.79;86.20801;95795.54;;;;
2022/09/05 01:35:55;;;;;;;5.2;4.7;;;;;;;12.79;86.20801;95795.54;;;;
2022/09/05 01:37:17;;;;;;;5.2;4.7;;;;;;;12.79;86.20801;95795.54;;;;
2022/09/05 01:38:21;;;;;;;5.2;4.7;;;;;;;12.79;86.20801;95795.54;;;;
2022/09/05 01:39:30;;;;;;;5.2;4.7;;;;;;;12.79;86.20801;95795.54;;;;
2022/09/05 01:40:44;;;;;;;5.2;4.7;;;;;;;12.79;86.20801;95795.54;;;;
2022/09/05 01:41:55;;;;;;;5.2;4.7;;;;;;;12.79;86.20801;95795.54;;;;
2022/09/05 01:43:06;;;;;;;5.2;4.7;;;;;;;12.79;86.20801;95795.54;;;;
2022/09/05 01:44:18;;;;;;;5.2;4.7;;;;;;;12.79;86.20801;95795.54;;;;
2022/09/05 01:45:31;;;;;;;5.25;4.75;;;;;;;12.71;86.30176;95795.67;;;;
2022/09/05 01:46:46;;;;;;;5.25;4.75;;;;;;;12.71;86.30176;95795.67;;;;
2022/09/05 01:47:58;;;;;;;5.25;4.75;;;;;;;12.71;86.30176;95795.67;;;;
2022/09/05 01:49:03;;;;;;;5.25;4.75;;;;;;;12.71;86.30176;95795.67;;;;
2022/09/05 01:50:14;;;;;;;5.25;4.75;;;;;;;12.71;86.30176;95795.67;;;;
2022/09/05 01:51:26;;;;;;;5.25;4.75;;;;;;;12.71;86.30176;95795.67;;;;
2022/09/05 01:52:37;;;;;;;5.25;4.75;;;;;;;12.71;86.30176;95795.67;;;;
2022/09/05 01:53:50;;;;;;;5.25;4.75;;;;;;;12.71;86.30176;95795.67;;;;
2022/09/05 01:54:57;;;;;;;5.25;4.75;;;;;;;12.71;86.30176;95795.67;;;;
2022/09/05 01:56:15;;;;;;;5.149999;4.649999;;;;;;;12.69;86.48047;95786.72;;;;
2022/09/05 01:57:32;;;;;;;5.149999;4.649999;;;;;;;12.69;86.48047;95786.72;;;;
2022/09/05 01:58:43;;;;;;;5.149999;4.649999;;;;;;;12.69;86.48047;95786.72;;;;
2022/09/05 01:59:53;;;;;;;5.149999;4.649999;;;;;;;12.69;86.48047;95786.72;;;;
2022/09/05 02:00:59;;;;;;;5.149999;4.649999;;;;;;;12.69;86.48047;95786.72;;;;
2022/09/05 02:02:08;;;;;;;5.149999;4.649999;;;;;;;12.69;86.48047;95786.72;;;;
2022/09/05 02:03:20;;;;;;;5.149999;4.649999;;;;;;;12.69;86.48047;95786.72;;;;
2022/09/05 02:04:32;;;;;;;5.149999;4.649999;;;;;;;12.69;86.48047;95786.72;;;;
2022/09/05 02:05:54;;;;;;;5.149999;4.649999;;;;;;;12.69;86.48047;95786.72;;;;
2022/09/05 02:07:13;;;;;;;5.1;4.450001;;;;;;;12.61;86.48535;95798.08;;;;
2022/09/05 02:08:29;;;;;;;5.1;4.450001;;;;;;;12.61;86.48535;95798.08;;;;
2022/09/05 02:09:43;;;;;;;5.1;4.450001;;;;;;;12.61;86.48535;95798.08;;;;
2022/09/05 02:11:01;;;;;;;5.1;4.450001;;;;;;;12.61;86.48535;95798.08;;;;
2022/09/05 02:12:05;;;;;;;5.1;4.450001;;;;;;;12.61;86.48535;95798.08;;;;
2022/09/05 02:13:19;;;;;;;5.1;4.450001;;;;;;;12.61;86.48535;95798.08;;;;
2022/09/05 02:14:28;;;;;;;5.1;4.450001;;;;;;;12.61;86.48535;95798.08;;;;
2022/09/05 02:15:37;;;;;;;5.1;4.450001;;;;;;;12.61;86.48535;95798.08;;;;
2022/09/05 02:16:44;;;;;;;5.1;4.450001;;;;;;;12.61;86.48535;95798.08;;;;
2022/09/05 02:17:46;;;;;;;5.450001;4.45;;;;;;;12.55;86.63672;95794.83;;;;
2022/09/05 02:18:51;;;;;;;5.450001;4.45;;;;;;;12.55;86.63672;95794.83;;;;
2022/09/05 02:19:59;;;;;;;5.450001;4.45;;;;;;;12.55;86.63672;95794.83;;;;
2022/09/05 02:21:10;;;;;;;5.450001;4.45;;;;;;;12.55;86.63672;95794.83;;;;
2022/09/05 02:22:20;;;;;;;5.450001;4.45;;;;;;;12.55;86.63672;95794.83;;;;
2022/09/05 02:23:27;;;;;;;5.450001;4.45;;;;;;;12.55;86.63672;95794.83;;;;
2022/09/05 02:24:39;;;;;;;5.450001;4.45;;;;;;;12.55;86.63672;95794.83;;;;
2022/09/05 02:25:43;;;;;;;5.450001;4.45;;;;;;;12.55;86.63672;95794.83;;;;
2022/09/05 02:26:51;;;;;;;5.450001;4.45;;;;;;;12.55;86.63672;95794.83;;;;
2022/09/05 02:28:06;;;;;;;4.550001;4.15;;;;;;;12.44;86.74316;95803.05;;;;
2022/09/05 02:29:12;;;;;;;4.550001;4.15;;;;;;;12.44;86.74316;95803.05;;;;
2022/09/05 02:30:19;;;;;;;4.550001;4.15;;;;;;;12.44;86.74316;95803.05;;;;
2022/09/05 02:31:23;;;;;;;4.550001;4.15;;;;;;;12.44;86.74316;95803.05;;;;
2022/09/05 02:32:41;;;;;;;4.550001;4.15;;;;;;;12.44;86.74316;95803.05;;;;
2022/09/05 02:33:53;;;;;;;4.550001;4.15;;;;;;;12.44;86.74316;95803.05;;;;
2022/09/05 02:34:59;;;;;;;4.550001;4.15;;;;;;;12.44;86.74316;95803.05;;;;
2022/09/05 02:36:06;;;;;;;4.550001;4.15;;;;;;;12.44;86.74316;95803.05;;;;
2022/09/05 02:37:12;;;;;;;4.550001;4.15;;;;;;;12.44;86.74316;95803.05;;;;
2022/09/05 02:38:22;;;;;;;4.550001;4.15;;;;;;;12.44;86.74316;95803.05;;;;
2022/09/05 02:39:34;;;;;;;4.550001;4.050001;;;;;;;12.37;86.94531;95802.24;;;;
2022/09/05 02:40:43;;;;;;;4.550001;4.050001;;;;;;;12.37;86.94531;95802.24;;;;
2022/09/05 02:41:49;;;;;;;4.550001;4.050001;;;;;;;12.37;86.94531;95802.24;;;;
2022/09/05 02:42:59;;;;;;;4.550001;4.050001;;;;;;;12.37;86.94531;95802.24;;;;
2022/09/05 02:44:06;;;;;;;4.550001;4.050001;;;;;;;12.37;86.94531;95802.24;;;;
2022/09/05 02:45:11;;;;;;;4.550001;4.050001;;;;;;;12.37;86.94531;95802.24;;;;
2022/09/05 02:46:21;;;;;;;4.550001;4.050001;;;;;;;12.37;86.94531;95802.24;;;;
2022/09/05 02:47:30;;;;;;;4.550001;4.050001;;;;;;;12.37;86.94531;95802.24;;;;
2022/09/05 02:48:38;;;;;;;4.550001;4.050001;;;;;;;12.37;86.94531;95802.24;;;;
2022/09/05 02:49:50;;;;;;;6.6;4.75;;;;;;;12.26;87.05273;95803.81;;;;
2022/09/05 02:51:02;;;;;;;6.6;4.75;;;;;;;12.26;87.05273;95803.81;;;;
2022/09/05 02:52:13;;;;;;;6.6;4.75;;;;;;;12.26;87.05273;95803.81;;;;
2022/09/05 02:53:17;;;;;;;6.6;4.75;;;;;;;12.26;87.05273;95803.81;;;;
2022/09/05 02:54:20;;;;;;;6.6;4.75;;;;;;;12.26;87.05273;95803.81;;;;
2022/09/05 02:55:25;;;;;;;6.6;4.75;;;;;;;12.26;87.05273;95803.81;;;;
2022/09/05 02:56:36;;;;;;;6.6;4.75;;;;;;;12.26;87.05273;95803.81;;;;
2022/09/05 02:57:53;;;;;;;6.6;4.75;;;;;;;12.26;87.05273;95803.81;;;;
2022/09/05 02:59:14;;;;;;;6.6;4.75;;;;;;;12.26;87.05273;95803.81;;;;
2022/09/05 03:00:37;;;;;;;5.5;4.349999;;;;;;;12.21;87.16113;95808.42;;;;
2022/09/05 03:01:43;;;;;;;5.5;4.349999;;;;;;;12.21;87.16113;95808.42;;;;
2022/09/05 03:02:57;;;;;;;5.5;4.349999;;;;;;;12.21;87.16113;95808.42;;;;
2022/09/05 03:04:14;;;;;;;5.5;4.349999;;;;;;;12.21;87.16113;95808.42;;;;
2022/09/05 03:05:26;;;;;;;5.5;4.349999;;;;;;;12.21;87.16113;95808.42;;;;
2022/09/05 03:06:32;;;;;;;5.5;4.349999;;;;;;;12.21;87.16113;95808.42;;;;
2022/09/05 03:07:43;;;;;;;5.5;4.349999;;;;;;;12.21;87.16113;95808.42;;;;
2022/09/05 03:09:04;;;;;;;5.5;4.349999;;;;;;;12.21;87.16113;95808.42;;;;
2022/09/05 03:10:17;;;;;;;5.5;4.349999;;;;;;;12.21;87.16113;95808.42;;;;
2022/09/05 03:11:38;;;;;;;4.45;4.05;;;;;;;12.09;87.19141;95806.64;;;;
2022/09/05 03:13:30;;;;;;;4.45;4.05;;;;;;;12.09;87.19141;95806.64;;;;
2022/09/05 03:14:57;;;;;;;4.45;4.05;;;;;;;12.09;87.19141;95806.64;;;;
2022/09/05 03:20:07;;;;;;;4.45;4.05;;;;;;;12.09;87.19141;95806.64;;;;
2022/09/05 03:21:50;;;;;;;4.75;4.3;;;;;;;12.06;87.37891;95818.98;;;;
2022/09/05 03:23:11;;;;;;;4.75;4.3;;;;;;;12.06;87.37891;95818.98;;;;
2022/09/05 03:24:30;;;;;;;4.75;4.3;;;;;;;12.06;87.37891;95818.98;;;;
2022/09/05 03:27:00;;;;;;;4.75;4.3;;;;;;;12.06;87.37891;95818.98;;;;
2022/09/05 03:28:45;;;;;;;4.75;4.3;;;;;;;12.06;87.37891;95818.98;;;;
2022/09/05 03:30:26;;;;;;;4.75;4.3;;;;;;;12.06;87.37891;95818.98;;;;
2022/09/05 03:31:37;;;;;;;4.75;4.3;;;;;;;12.06;87.37891;95818.98;;;;
2022/09/05 03:32:54;;;;;;;4.750001;4.25;;;;;;;11.95;87.46387;95817.36;;;;
2022/09/05 03:34:30;;;;;;;4.750001;4.25;;;;;;;11.95;87.46387;95817.36;;;;
2022/09/05 03:35:50;;;;;;;4.750001;4.25;;;;;;;11.95;87.46387;95817.36;;;;
2022/09/05 03:37:19;;;;;;;4.750001;4.25;;;;;;;11.95;87.46387;95817.36;;;;
2022/09/05 03:38:47;;;;;;;4.750001;4.25;;;;;;;11.95;87.46387;95817.36;;;;
2022/09/05 03:40:14;;;;;;;4.750001;4.25;;;;;;;11.95;87.46387;95817.36;;;;
2022/09/05 03:41:34;;;;;;;4.750001;4.25;;;;;;;11.95;87.46387;95817.36;;;;
2022/09/05 03:42:54;;;;;;;5.550001;4.649999;;;;;;;11.9;87.51953;95811.36;;;;
2022/09/05 03:44:13;;;;;;;5.550001;4.649999;;;;;;;11.9;87.51953;95811.36;;;;
2022/09/05 03:45:31;;;;;;;5.550001;4.649999;;;;;;;11.9;87.51953;95811.36;;;;
2022/09/05 03:46:45;;;;;;;5.550001;4.649999;;;;;;;11.9;87.51953;95811.36;;;;
2022/09/05 03:48:00;;;;;;;5.550001;4.649999;;;;;;;11.9;87.51953;95811.36;;;;
2022/09/05 03:49:46;;;;;;;5.550001;4.649999;;;;;;;11.9;87.51953;95811.36;;;;
2022/09/05 03:51:04;;;;;;;5.550001;4.649999;;;;;;;11.9;87.51953;95811.36;;;;
2022/09/05 03:52:18;;;;;;;5.550001;4.649999;;;;;;;11.9;87.51953;95811.36;;;;
2022/09/05 03:53:32;;;;;;;7.9;4.85;;;;;;;11.78;87.5918;95808.64;;;;
2022/09/05 03:54:51;;;;;;;7.9;4.85;;;;;;;11.78;87.5918;95808.64;;;;
2022/09/05 03:56:27;;;;;;;7.9;4.85;;;;;;;11.78;87.5918;95808.64;;;;
2022/09/05 03:57:39;;;;;;;7.9;4.85;;;;;;;11.78;87.5918;95808.64;;;;
2022/09/05 03:59:08;;;;;;;7.9;4.85;;;;;;;11.78;87.5918;95808.64;;;;
2022/09/05 04:00:38;;;;;;;7.9;4.85;;;;;;;11.78;87.5918;95808.64;;;;
2022/09/05 04:01:43;;;;;;;7.9;4.85;;;;;;;11.78;87.5918;95808.64;;;;
2022/09/05 04:02:47;;;;;;;7.9;4.85;;;;;;;11.78;87.5918;95808.64;;;;
2022/09/05 04:04:02;;;;;;;6.849999;4.500001;;;;;;;11.74;87.74512;95809.64;;;;
2022/09/05 04:05:07;;;;;;;6.849999;4.500001;;;;;;;11.74;87.74512;95809.64;;;;
2022/09/05 04:06:13;;;;;;;6.849999;4.500001;;;;;;;11.74;87.74512;95809.64;;;;
2022/09/05 04:07:20;;;;;;;6.849999;4.500001;;;;;;;11.74;87.74512;95809.64;;;;
2022/09/05 04:08:25;;;;;;;6.849999;4.500001;;;;;;;11.74;87.74512;95809.64;;;;
2022/09/05 04:09:38;;;;;;;6.849999;4.500001;;;;;;;11.74;87.74512;95809.64;;;;
2022/09/05 04:10:45;;;;;;;6.849999;4.500001;;;;;;;11.74;87.74512;95809.64;;;;
2022/09/05 04:11:53;;;;;;;6.849999;4.500001;;;;;;;11.74;87.74512;95809.64;;;;
2022/09/05 04:12:59;;;;;;;6.849999;4.500001;;;;;;;11.74;87.74512;95809.64;;;;
2022/09/05 04:14:07;;;;;;;6.849999;4.500001;;;;;;;11.74;87.74512;95809.64;;;;
2022/09/05 04:15:16;;;;;;;5.05;4.55;;;;;;;11.64;87.7998;95797.74;;;;
2022/09/05 04:16:29;;;;;;;5.05;4.55;;;;;;;11.64;87.7998;95797.74;;;;
2022/09/05 04:17:40;;;;;;;5.05;4.55;;;;;;;11.64;87.7998;95797.74;;;;
2022/09/05 04:18:45;;;;;;;5.05;4.55;;;;;;;11.64;87.7998;95797.74;;;;
2022/09/05 04:19:51;;;;;;;5.05;4.55;;;;;;;11.64;87.7998;95797.74;;;;
2022/09/05 04:20:56;;;;;;;5.05;4.55;;;;;;;11.64;87.7998;95797.74;;;;
2022/09/05 04:22:02;;;;;;;5.05;4.55;;;;;;;11.64;87.7998;95797.74;;;;
2022/09/05 04:23:22;;;;;;;5.05;4.55;;;;;;;11.64;87.7998;95797.74;;;;
2022/09/05 04:24:31;;;;;;;5.05;4.55;;;;;;;11.64;87.7998;95797.74;;;;
2022/09/05 04:25:41;;;;;;;5.500001;4.75;;;;;;;11.63;87.97266;95800.92;;;;
2022/09/05 04:26:54;;;;;;;5.500001;4.75;;;;;;;11.63;87.97266;95800.92;;;;
2022/09/05 04:28:09;;;;;;;5.500001;4.75;;;;;;;11.63;87.97266;95800.92;;;;
2022/09/05 04:29:18;;;;;;;5.500001;4.75;;;;;;;11.63;87.97266;95800.92;;;;
2022/09/05 04:30:26;;;;;;;5.500001;4.75;;;;;;;11.63;87.97266;95800.92;;;;
2022/09/05 04:31:36;;;;;;;5.500001;4.75;;;;;;;11.63;87.97266;95800.92;;;;
2022/09/05 04:32:46;;;;;;;5.500001;4.75;;;;;;;11.63;87.97266;95800.92;;;;
2022/09/05 04:33:53;;;;;;;5.500001;4.75;;;;;;;11.63;87.97266;95800.92;;;;
2022/09/05 04:35:04;;;;;;;5.500001;4.75;;;;;;;11.63;87.97266;95800.92;;;;
2022/09/05 04:36:22;;;;;;;6.199999;5.05;;;;;;;11.57;87.92871;95797.72;;;;
2022/09/05 04:37:26;;;;;;;6.199999;5.05;;;;;;;11.57;87.92871;95797.72;;;;
2022/09/05 04:38:37;;;;;;;6.199999;5.05;;;;;;;11.57;87.92871;95797.72;;;;
2022/09/05 04:39:40;;;;;;;6.199999;5.05;;;;;;;11.57;87.92871;95797.72;;;;
2022/09/05 04:40:40;;;;;;;6.199999;5.05;;;;;;;11.57;87.92871;95797.72;;;;
2022/09/05 04:41:46;;;;;;;6.199999;5.05;;;;;;;11.57;87.92871;95797.72;;;;
2022/09/05 04:42:50;;;;;;;6.199999;5.05;;;;;;;11.57;87.92871;95797.72;;;;
2022/09/05 04:43:50;;;;;;;6.199999;5.05;;;;;;;11.57;87.92871;95797.72;;;;
2022/09/05 04:44:57;;;;;;;6.199999;5.05;;;;;;;11.57;87.92871;95797.72;;;;
2022/09/05 04:46:06;;;;;;;6.199999;5.05;;;;;;;11.57;87.92871;95797.72;;;;
2022/09/05 04:47:12;;;;;;;7.45;5.65;;;;;;;11.59;88.04883;95813.42;;;;
2022/09/05 04:48:18;;;;;;;7.45;5.65;;;;;;;11.59;88.04883;95813.42;;;;
2022/09/05 04:49:25;;;;;;;7.45;5.65;;;;;;;11.59;88.04883;95813.42;;;;
2022/09/05 04:50:29;;;;;;;7.45;5.65;;;;;;;11.59;88.04883;95813.42;;;;
2022/09/05 04:51:31;;;;;;;7.45;5.65;;;;;;;11.59;88.04883;95813.42;;;;
2022/09/05 04:52:51;;;;;;;7.45;5.65;;;;;;;11.59;88.04883;95813.42;;;;
2022/09/05 04:54:10;;;;;;;7.45;5.65;;;;;;;11.59;88.04883;95813.42;;;;
2022/09/05 04:55:23;;;;;;;7.45;5.65;;;;;;;11.59;88.04883;95813.42;;;;
2022/09/05 04:56:26;;;;;;;7.45;5.65;;;;;;;11.59;88.04883;95813.42;;;;
2022/09/05 04:57:34;;;;;;;7.45;5.65;;;;;;;11.59;88.04883;95813.42;;;;
2022/09/05 04:58:41;;;;;;;6.55;5.1;;;;;;;11.56;88.09473;95819.11;;;;
2022/09/05 04:59:48;;;;;;;6.55;5.1;;;;;;;11.56;88.09473;95819.11;;;;
2022/09/05 05:00:59;;;;;;;6.55;5.1;;;;;;;11.56;88.09473;95819.11;;;;
2022/09/05 05:02:05;;;;;;;6.55;5.1;;;;;;;11.56;88.09473;95819.11;;;;
2022/09/05 05:03:15;;;;;;;6.55;5.1;;;;;;;11.56;88.09473;95819.11;;;;
2022/09/05 05:04:21;;;;;;;6.55;5.1;;;;;;;11.56;88.09473;95819.11;;;;
2022/09/05 05:05:24;;;;;;;6.55;5.1;;;;;;;11.56;88.09473;95819.11;;;;
2022/09/05 05:06:28;;;;;;;6.55;5.1;;;;;;;11.56;88.09473;95819.11;;;;
2022/09/05 05:07:34;;;;;;;6.55;5.1;;;;;;;11.56;88.09473;95819.11;;;;
2022/09/05 05:08:46;;;;;;;6.950001;4.95;;;;;;;11.67;88.17285;95825.55;;;;
2022/09/05 05:09:52;;;;;;;6.950001;4.95;;;;;;;11.67;88.17285;95825.55;;;;
2022/09/05 05:10:56;;;;;;;6.950001;4.95;;;;;;;11.67;88.17285;95825.55;;;;
2022/09/05 05:12:00;;;;;;;6.950001;4.95;;;;;;;11.67;88.17285;95825.55;;;;
2022/09/05 05:13:07;;;;;;;6.950001;4.95;;;;;;;11.67;88.17285;95825.55;;;;
2022/09/05 05:14:14;;;;;;;6.950001;4.95;;;;;;;11.67;88.17285;95825.55;;;;
2022/09/05 05:15:20;;;;;;;6.950001;4.95;;;;;;;11.67;88.17285;95825.55;;;;
2022/09/05 05:16:24;;;;;;;6.950001;4.95;;;;;;;11.67;88.17285;95825.55;;;;
2022/09/05 05:17:29;;;;;;;6.950001;4.95;;;;;;;11.67;88.17285;95825.55;;;;
2022/09/05 05:18:35;;;;;;;6.950001;4.95;;;;;;;11.67;88.17285;95825.55;;;;
2022/09/05 05:19:43;;;;;;;6.25;5.650001;;;;;;;11.76;88.16895;95837.16;;;;
2022/09/05 05:20:47;;;;;;;6.25;5.650001;;;;;;;11.76;88.16895;95837.16;;;;
2022/09/05 05:21:57;;;;;;;6.25;5.650001;;;;;;;11.76;88.16895;95837.16;;;;
2022/09/05 05:23:01;;;;;;;6.25;5.650001;;;;;;;11.76;88.16895;95837.16;;;;
2022/09/05 05:24:05;;;;;;;6.25;5.650001;;;;;;;11.76;88.16895;95837.16;;;;
2022/09/05 05:25:10;;;;;;;6.25;5.650001;;;;;;;11.76;88.16895;95837.16;;;;
2022/09/05 05:26:12;;;;;;;6.25;5.650001;;;;;;;11.76;88.16895;95837.16;;;;
2022/09/05 05:27:21;;;;;;;6.25;5.650001;;;;;;;11.76;88.16895;95837.16;;;;
2022/09/05 05:28:26;;;;;;;6.25;5.650001;;;;;;;11.76;88.16895;95837.16;;;;
2022/09/05 05:29:38;;;;;;;6.25;5.650001;;;;;;;11.76;88.16895;95837.16;;;;
2022/09/05 05:30:46;;;;;;;6.95;5.95;;;;;;;12.03;88.19043;95851.08;;;;
2022/09/05 05:31:46;;;;;;;6.95;5.95;;;;;;;12.03;88.19043;95851.08;;;;
2022/09/05 05:32:51;;;;;;;6.95;5.95;;;;;;;12.03;88.19043;95851.08;;;;
2022/09/05 05:33:54;;;;;;;6.95;5.95;;;;;;;12.03;88.19043;95851.08;;;;
2022/09/05 05:34:57;;;;;;;6.95;5.95;;;;;;;12.03;88.19043;95851.08;;;;
2022/09/05 05:36:06;;;;;;;6.95;5.95;;;;;;;12.03;88.19043;95851.08;;;;
2022/09/05 05:37:17;;;;;;;6.95;5.95;;;;;;;12.03;88.19043;95851.08;;;;
2022/09/05 05:38:22;;;;;;;6.95;5.95;;;;;;;12.03;88.19043;95851.08;;;;
2022/09/05 05:39:30;;;;;;;6.95;5.95;;;;;;;12.03;88.19043;95851.08;;;;
2022/09/05 05:40:35;;;;;;;6.699999;5.35;;;;;;;12.33;88.03809;95857.54;;;;
2022/09/05 05:41:42;;;;;;;6.699999;5.35;;;;;;;12.33;88.03809;95857.54;;;;
2022/09/05 05:42:47;;;;;;;6.699999;5.35;;;;;;;12.33;88.03809;95857.54;;;;
2022/09/05 05:43:47;;;;;;;6.699999;5.35;;;;;;;12.33;88.03809;95857.54;;;;
2022/09/05 05:44:50;;;;;;;6.699999;5.35;;;;;;;12.33;88.03809;95857.54;;;;
2022/09/05 05:45:53;;;;;;;6.699999;5.35;;;;;;;12.33;88.03809;95857.54;;;;
2022/09/05 05:46:56;;;;;;;6.699999;5.35;;;;;;;12.33;88.03809;95857.54;;;;
2022/09/05 05:48:01;;;;;;;6.699999;5.35;;;;;;;12.33;88.03809;95857.54;;;;
2022/09/05 05:49:04;;;;;;;6.699999;5.35;;;;;;;12.33;88.03809;95857.54;;;;
2022/09/05 05:50:21;;;;;;;6.699999;5.35;;;;;;;12.33;88.03809;95857.54;;;;
2022/09/05 05:51:34;;;;;;;7.85;5.55;;;;;;;12.84;87.8916;95859.27;;;;
2022/09/05 05:52:42;;;;;;;7.85;5.55;;;;;;;12.84;87.8916;95859.27;;;;
2022/09/05 05:54:04;;;;;;;7.85;5.55;;;;;;;12.84;87.8916;95859.27;;;;
2022/09/05 05:55:14;;;;;;;7.85;5.55;;;;;;;12.84;87.8916;95859.27;;;;
2022/09/05 05:56:36;;;;;;;7.85;5.55;;;;;;;12.84;87.8916;95859.27;;;;
2022/09/05 05:57:46;;;;;;;7.85;5.55;;;;;;;12.84;87.8916;95859.27;;;;
2022/09/05 05:59:03;;;;;;;7.85;5.55;;;;;;;12.84;87.8916;95859.27;;;;
2022/09/05 06:00:17;;;;;;;7.85;5.55;;;;;;;12.84;87.8916;95859.27;;;;
2022/09/05 06:01:20;;;;;;;7.85;5.55;;;;;;;12.84;87.8916;95859.27;;;;
2022/09/05 06:06:42;;;;;;;6.749999;6.05;;;;;;;13.39;87.52539;95857.75;;;;
2022/09/05 06:07:58;;;;;;;6.749999;6.05;;;;;;;13.39;87.52539;95857.75;;;;
2022/09/05 06:09:20;;;;;;;6.749999;6.05;;;;;;;13.39;87.52539;95857.75;;;;
2022/09/05 06:10:49;;;;;;;6.749999;6.05;;;;;;;13.39;87.52539;95857.75;;;;
2022/09/05 06:12:15;;;;;;;6.749999;6.05;;;;;;;13.39;87.52539;95857.75;;;;
2022/09/05 06:13:52;;;;;;;6;5.450001;;;;;;;14.1;87.38379;95862.19;;;;
2022/09/05 06:15:23;;;;;;;6;5.450001;;;;;;;14.1;87.38379;95862.19;;;;
2022/09/05 06:16:34;;;;;;;6;5.450001;;;;;;;14.1;87.38379;95862.19;;;;
2022/09/05 06:17:49;;;;;;;6;5.450001;;;;;;;14.1;87.38379;95862.19;;;;
2022/09/05 06:19:23;;;;;;;6;5.450001;;;;;;;14.1;87.38379;95862.19;;;;
2022/09/05 06:20:50;;;;;;;6;5.450001;;;;;;;14.1;87.38379;95862.19;;;;
2022/09/05 06:22:09;;;;;;;6;5.450001;;;;;;;14.1;87.38379;95862.19;;;;
2022/09/05 06:23:32;;;;;;;5.55;5.05;;;;;;;15.11;86.72852;95863.31;;;;
2022/09/05 06:25:08;;;;;;;5.55;5.05;;;;;;;15.11;86.72852;95863.31;;;;
2022/09/05 06:27:42;;;;;;;5.55;5.05;;;;;;;15.11;86.72852;95863.31;;;;
2022/09/05 06:28:56;;;;;;;5.55;5.05;;;;;;;15.11;86.72852;95863.31;;;;
2022/09/05 06:30:07;;;;;;;5.55;5.05;;;;;;;15.11;86.72852;95863.31;;;;
2022/09/05 06:31:14;;;;;;;5.55;5.05;;;;;;;15.11;86.72852;95863.31;;;;
2022/09/05 06:32:32;;;;;;;5.55;5.05;;;;;;;15.11;86.72852;95863.31;;;;
2022/09/05 06:33:47;;;;;;;5.55;5.05;;;;;;;15.11;86.72852;95863.31;;;;
2022/09/05 06:35:04;;;;;;;5.45;4.6;;;;;;;16.84;84.84961;95863.09;;;;
2022/09/05 06:36:29;;;;;;;5.45;4.6;;;;;;;16.84;84.84961;95863.09;;;;
2022/09/05 06:37:46;;;;;;;5.45;4.6;;;;;;;16.84;84.84961;95863.09;;;;
2022/09/05 06:39:01;;;;;;;5.45;4.6;;;;;;;16.84;84.84961;95863.09;;;;
2022/09/05 06:40:10;;;;;;;5.45;4.6;;;;;;;16.84;84.84961;95863.09;;;;
2022/09/05 06:41:19;;;;;;;5.45;4.6;;;;;;;16.84;84.84961;95863.09;;;;
2022/09/05 06:42:31;;;;;;;5.45;4.6;;;;;;;16.84;84.84961;95863.09;;;;
2022/09/05 06:43:42;;;;;;;5.45;4.6;;;;;;;16.84;84.84961;95863.09;;;;
2022/09/05 06:45:13;;;;;;;6.75;4.25;;;;;;;18.46;82.96191;95851.4;;;;
2022/09/05 06:46:26;;;;;;;6.75;4.25;;;;;;;18.46;82.96191;95851.4;;;;
2022/09/05 06:47:32;;;;;;;6.75;4.25;;;;;;;18.46;82.96191;95851.4;;;;
2022/09/05 06:48:35;;;;;;;6.75;4.25;;;;;;;18.46;82.96191;95851.4;;;;
2022/09/05 06:49:46;;;;;;;6.75;4.25;;;;;;;18.46;82.96191;95851.4;;;;
2022/09/05 06:51:00;;;;;;;6.75;4.25;;;;;;;18.46;82.96191;95851.4;;;;